Fritz Reuter — A8JE9 — position and weather

sailwx.info

Track history (hours):
 
Tides and Currents Weather Stations Pressure Air Temp Water Temp Dewpoint Dewpoint Depression Visibility Wind Speed Wind Dir Waves Ship Positions

Fritz Reuter

Last reported at 2018-Feb-14 00:52 UTC. Time now 2018-Feb-24 14:17 UTC.
Position N 36°57' W 031°21'.
Warning: this ship's position is 10 days out of date.

Length 178 m; draft 9.9 m.

Type: Ship (hazmat cat A). MMSI: 636091081.

Date/timePositionNaut miles runAvg speedWind from/ knotsBaromVisibWave heightAir tempDewpointWater temp
2018-Feb-14 00:52N 36°57' W 031°21'1512.7
2018-Feb-13 23:43N 36°56' W 031°03'24012.9
2018-Feb-13 05:02N 36°18' W 026°07'112.9
2018-Feb-13 04:57N 36°18' W 026°06'613.2
2018-Feb-13 04:30N 36°18' W 025°59'613.2
2018-Feb-13 04:00N 36°16' W 025°51'713.3
2018-Feb-13 03:30N 36°15' W 025°43'713.1
2018-Feb-13 03:00N 36°14' W 025°35'713.2
2018-Feb-13 02:30N 36°13' W 025°27'713.1
2018-Feb-13 02:00N 36°12' W 025°19'713.4
2018-Feb-13 01:30N 36°12' W 025°10'713.6
2018-Feb-13 01:00N 36°10' W 025°02'713.3
2018-Feb-13 00:30N 36°11' W 024°54'713.6
2018-Feb-13 00:00N 36°12' W 024°46'713.6
2018-Feb-12 23:30N 36°14' W 024°37'713.5
2018-Feb-12 23:00N 36°15' W 024°29'913.6
2018-Feb-12 22:21N 36°16' W 024°18'69213.6
2018-Feb-10 19:38N 38°29' W 010°03'213.2
2018-Feb-10 19:30N 38°29' W 010°01'613.1
2018-Feb-10 19:00N 38°30' W 009°53'713.1
2018-Feb-10 18:30N 38°32' W 009°45'713.2
2018-Feb-10 18:00N 38°33' W 009°37'612.6
2018-Feb-10 17:30N 38°35' W 009°29'612.5
2018-Feb-10 17:01N 38°38' W 009°22'612.1
2018-Feb-10 16:30N 38°41' W 009°16'612.9
2018-Feb-10 16:01N 38°42' W 009°07'1 0.2
2018-Feb-10 07:05N 38°44' W 009°06'0 0.8
2018-Feb-10 06:59N 38°44' W 009°06'1 1.3
2018-Feb-10 06:30N 38°43' W 009°07'510.8
2018-Feb-10 06:00N 38°41' W 009°13'3 5.6
2018-Feb-10 05:30N 38°41' W 009°16'4 8.0
2018-Feb-10 05:00N 38°39' W 009°20'4 7.9
2018-Feb-10 04:30N 38°36' W 009°24'4 7.9
2018-Feb-10 04:00N 38°32' W 009°24'4 7.8
2018-Feb-10 03:30N 38°28' W 009°24'4 8.0
2018-Feb-10 03:00N 38°24' W 009°24'4 8.1
2018-Feb-10 02:30N 38°20' W 009°24'4 8.2
2018-Feb-10 02:00N 38°16' W 009°23'4 8.1
2018-Feb-10 01:30N 38°12' W 009°23'4 8.0
2018-Feb-10 01:00N 38°08' W 009°22'4 8.0
2018-Feb-10 00:30N 38°04' W 009°22'4 8.0
2018-Feb-10 00:00N 37°60' W 009°22'4 8.2
2018-Feb-09 23:30N 37°56' W 009°22'4 7.9
2018-Feb-09 23:00N 37°52' W 009°22'2 7.8
2018-Feb-09 22:45N 37°50' W 009°22'218 9.0
2018-Feb-08 22:30N 36°00' W 005°27'24211.8
2018-Feb-08 02:01N 37°27' W 000°44'712.4
2018-Feb-08 01:28N 37°31' W 000°38'512.1
2018-Feb-08 01:01N 37°35' W 000°33'611.9
2018-Feb-08 00:31N 37°40' W 000°29'107 6.1
2018-Feb-07 07:04N 39°27' W 000°19'0 0.0
2018-Feb-07 06:34N 39°27' W 000°19'0 0.0
2018-Feb-07 06:25N 39°27' W 000°19'0 0.0
2018-Feb-07 05:58N 39°27' W 000°19'0 0.0
2018-Feb-07 05:28N 39°27' W 000°19'0 0.0
2018-Feb-07 04:58N 39°27' W 000°19'0 0.0
2018-Feb-07 04:28N 39°27' W 000°19'0 0.0
2018-Feb-07 03:58N 39°27' W 000°19'0 0.0
2018-Feb-07 03:28N 39°27' W 000°19'0 0.0
2018-Feb-07 02:58N 39°27' W 000°19'0 0.0
2018-Feb-07 02:28N 39°27' W 000°19'0 0.0
2018-Feb-07 01:58N 39°27' W 000°19'0 0.0
2018-Feb-07 01:28N 39°27' W 000°19'0 0.0
2018-Feb-07 00:58N 39°27' W 000°19'0 0.0
2018-Feb-07 00:28N 39°27' W 000°19'0 0.0
2018-Feb-06 23:55N 39°27' W 000°19'0 0.0
2018-Feb-06 23:28N 39°27' W 000°19'0 0.0
2018-Feb-06 22:58N 39°27' W 000°19'0 0.0
2018-Feb-06 22:28N 39°27' W 000°19'0 0.0
2018-Feb-06 21:58N 39°27' W 000°19'0 0.0
2018-Feb-06 21:28N 39°27' W 000°19'0 0.0
2018-Feb-06 20:58N 39°27' W 000°19'0 0.0
2018-Feb-06 20:22N 39°27' W 000°19'0 0.0
2018-Feb-06 19:28N 39°27' W 000°19'0 0.0
2018-Feb-06 18:52N 39°27' W 000°19'0 0.0
2018-Feb-06 18:28N 39°27' W 000°19'0 0.0
2018-Feb-06 17:58N 39°27' W 000°19'0 0.0
2018-Feb-06 17:28N 39°27' W 000°19'0 0.0
2018-Feb-06 16:59N 39°27' W 000°19'0 0.0
2018-Feb-06 16:30N 39°27' W 000°19'139 6.3
2018-Feb-05 18:15N 41°01' E 001°56'311.3
2018-Feb-05 17:58N 41°04' E 001°58'511.2
2018-Feb-05 17:30N 41°08' E 002°01'1413.4
2018-Feb-05 16:30N 41°20' E 002°10'1 2.0
2018-Feb-05 15:55N 41°21' E 002°10'0 0.0
2018-Feb-05 15:25N 41°21' E 002°10'0 0.0
2018-Feb-05 14:58N 41°21' E 002°10'0 0.0
2018-Feb-05 14:25N 41°21' E 002°10'0 0.0
2018-Feb-05 13:55N 41°21' E 002°10'0 0.0
2018-Feb-05 13:28N 41°21' E 002°10'0 0.0
2018-Feb-05 12:58N 41°21' E 002°10'0 0.0
2018-Feb-05 12:28N 41°21' E 002°10'0 0.0
2018-Feb-05 11:58N 41°21' E 002°10'0 0.0
2018-Feb-05 11:25N 41°21' E 002°10'0 0.0
2018-Feb-05 10:58N 41°21' E 002°10'0 0.0
2018-Feb-05 10:28N 41°21' E 002°10'0 0.0
2018-Feb-05 09:58N 41°21' E 002°10'0 0.0
2018-Feb-05 09:28N 41°21' E 002°10'0 0.0
2018-Feb-05 08:58N 41°21' E 002°10'0 0.0
2018-Feb-05 08:28N 41°21' E 002°10'0 0.0
2018-Feb-05 07:58N 41°21' E 002°10'0 0.0
2018-Feb-05 07:28N 41°21' E 002°10'0 0.0
2018-Feb-05 06:58N 41°21' E 002°10'0 0.0
2018-Feb-05 06:30N 41°21' E 002°10'0 0.5
2018-Feb-05 05:30N 41°21' E 002°10'3 6.0
2018-Feb-05 05:01N 41°18' E 002°11'3 6.5
2018-Feb-05 04:31N 41°15' E 002°12'4 7.4
2018-Feb-05 04:00N 41°11' E 002°14'713.5
2018-Feb-05 03:30N 41°05' E 002°17'  
Track history (hours):
 
Tides and Currents Weather Stations Pressure Air Temp Water Temp Dewpoint Dewpoint Depression Visibility Wind Speed Wind Dir Waves Ship Positions

Fritz Reuter

Last reported at 2018-Feb-14 00:52 UTC. Time now 2018-Feb-24 14:17 UTC.
Position N 36°57' W 031°21'.
Warning: this ship's position is 10 days out of date.

Length 178 m; draft 9.9 m.

Type: Ship (hazmat cat A). MMSI: 636091081.

Date/timePositionNaut miles runAvg speedWind from/ knotsBaromVisibWave heightAir tempDewpointWater temp
2018-Feb-14 00:52N 36°57' W 031°21'1512.7
2018-Feb-13 23:43N 36°56' W 031°03'24012.9
2018-Feb-13 05:02N 36°18' W 026°07'112.9
2018-Feb-13 04:57N 36°18' W 026°06'613.2
2018-Feb-13 04:30N 36°18' W 025°59'613.2
2018-Feb-13 04:00N 36°16' W 025°51'713.3
2018-Feb-13 03:30N 36°15' W 025°43'713.1
2018-Feb-13 03:00N 36°14' W 025°35'713.2
2018-Feb-13 02:30N 36°13' W 025°27'713.1
2018-Feb-13 02:00N 36°12' W 025°19'713.4
2018-Feb-13 01:30N 36°12' W 025°10'713.6
2018-Feb-13 01:00N 36°10' W 025°02'713.3
2018-Feb-13 00:30N 36°11' W 024°54'713.6
2018-Feb-13 00:00N 36°12' W 024°46'713.6
2018-Feb-12 23:30N 36°14' W 024°37'713.5
2018-Feb-12 23:00N 36°15' W 024°29'913.6
2018-Feb-12 22:21N 36°16' W 024°18'69213.6
2018-Feb-10 19:38N 38°29' W 010°03'213.2
2018-Feb-10 19:30N 38°29' W 010°01'613.1
2018-Feb-10 19:00N 38°30' W 009°53'713.1
2018-Feb-10 18:30N 38°32' W 009°45'713.2
2018-Feb-10 18:00N 38°33' W 009°37'612.6
2018-Feb-10 17:30N 38°35' W 009°29'612.5
2018-Feb-10 17:01N 38°38' W 009°22'612.1
2018-Feb-10 16:30N 38°41' W 009°16'612.9
2018-Feb-10 16:01N 38°42' W 009°07'1 0.2
2018-Feb-10 07:05N 38°44' W 009°06'0 0.8
2018-Feb-10 06:59N 38°44' W 009°06'1 1.3
2018-Feb-10 06:30N 38°43' W 009°07'510.8
2018-Feb-10 06:00N 38°41' W 009°13'3 5.6
2018-Feb-10 05:30N 38°41' W 009°16'4 8.0
2018-Feb-10 05:00N 38°39' W 009°20'4 7.9
2018-Feb-10 04:30N 38°36' W 009°24'4 7.9
2018-Feb-10 04:00N 38°32' W 009°24'4 7.8
2018-Feb-10 03:30N 38°28' W 009°24'4 8.0
2018-Feb-10 03:00N 38°24' W 009°24'4 8.1
2018-Feb-10 02:30N 38°20' W 009°24'4 8.2
2018-Feb-10 02:00N 38°16' W 009°23'4 8.1
2018-Feb-10 01:30N 38°12' W 009°23'4 8.0
2018-Feb-10 01:00N 38°08' W 009°22'4 8.0
2018-Feb-10 00:30N 38°04' W 009°22'4 8.0
2018-Feb-10 00:00N 37°60' W 009°22'4 8.2
2018-Feb-09 23:30N 37°56' W 009°22'4 7.9
2018-Feb-09 23:00N 37°52' W 009°22'2 7.8
2018-Feb-09 22:45N 37°50' W 009°22'218 9.0
2018-Feb-08 22:30N 36°00' W 005°27'24211.8
2018-Feb-08 02:01N 37°27' W 000°44'712.4
2018-Feb-08 01:28N 37°31' W 000°38'512.1
2018-Feb-08 01:01N 37°35' W 000°33'611.9
2018-Feb-08 00:31N 37°40' W 000°29'107 6.1
2018-Feb-07 07:04N 39°27' W 000°19'0 0.0
2018-Feb-07 06:34N 39°27' W 000°19'0 0.0
2018-Feb-07 06:25N 39°27' W 000°19'0 0.0
2018-Feb-07 05:58N 39°27' W 000°19'0 0.0
2018-Feb-07 05:28N 39°27' W 000°19'0 0.0
2018-Feb-07 04:58N 39°27' W 000°19'0 0.0
2018-Feb-07 04:28N 39°27' W 000°19'0 0.0
2018-Feb-07 03:58N 39°27' W 000°19'0 0.0
2018-Feb-07 03:28N 39°27' W 000°19'0 0.0
2018-Feb-07 02:58N 39°27' W 000°19'0 0.0
2018-Feb-07 02:28N 39°27' W 000°19'0 0.0
2018-Feb-07 01:58N 39°27' W 000°19'0 0.0
2018-Feb-07 01:28N 39°27' W 000°19'0 0.0
2018-Feb-07 00:58N 39°27' W 000°19'0 0.0
2018-Feb-07 00:28N 39°27' W 000°19'0 0.0
2018-Feb-06 23:55N 39°27' W 000°19'0 0.0
2018-Feb-06 23:28N 39°27' W 000°19'0 0.0
2018-Feb-06 22:58N 39°27' W 000°19'0 0.0
2018-Feb-06 22:28N 39°27' W 000°19'0 0.0
2018-Feb-06 21:58N 39°27' W 000°19'0 0.0
2018-Feb-06 21:28N 39°27' W 000°19'0 0.0
2018-Feb-06 20:58N 39°27' W 000°19'0 0.0
2018-Feb-06 20:22N 39°27' W 000°19'0 0.0
2018-Feb-06 19:28N 39°27' W 000°19'0 0.0
2018-Feb-06 18:52N 39°27' W 000°19'0 0.0
2018-Feb-06 18:28N 39°27' W 000°19'0 0.0
2018-Feb-06 17:58N 39°27' W 000°19'0 0.0
2018-Feb-06 17:28N 39°27' W 000°19'0 0.0
2018-Feb-06 16:59N 39°27' W 000°19'0 0.0
2018-Feb-06 16:30N 39°27' W 000°19'139 6.3
2018-Feb-05 18:15N 41°01' E 001°56'311.3
2018-Feb-05 17:58N 41°04' E 001°58'511.2
2018-Feb-05 17:30N 41°08' E 002°01'1413.4
2018-Feb-05 16:30N 41°20' E 002°10'1 2.0
2018-Feb-05 15:55N 41°21' E 002°10'0 0.0
2018-Feb-05 15:25N 41°21' E 002°10'0 0.0
2018-Feb-05 14:58N 41°21' E 002°10'0 0.0
2018-Feb-05 14:25N 41°21' E 002°10'0 0.0
2018-Feb-05 13:55N 41°21' E 002°10'0 0.0
2018-Feb-05 13:28N 41°21' E 002°10'0 0.0
2018-Feb-05 12:58N 41°21' E 002°10'0 0.0
2018-Feb-05 12:28N 41°21' E 002°10'0 0.0
2018-Feb-05 11:58N 41°21' E 002°10'0 0.0
2018-Feb-05 11:25N 41°21' E 002°10'0 0.0
2018-Feb-05 10:58N 41°21' E 002°10'0 0.0
2018-Feb-05 10:28N 41°21' E 002°10'0 0.0
2018-Feb-05 09:58N 41°21' E 002°10'0 0.0
2018-Feb-05 09:28N 41°21' E 002°10'0 0.0
2018-Feb-05 08:58N 41°21' E 002°10'0 0.0
2018-Feb-05 08:28N 41°21' E 002°10'0 0.0
2018-Feb-05 07:58N 41°21' E 002°10'0 0.0
2018-Feb-05 07:28N 41°21' E 002°10'0 0.0
2018-Feb-05 06:58N 41°21' E 002°10'0 0.0
2018-Feb-05 06:30N 41°21' E 002°10'0 0.5
2018-Feb-05 05:30N 41°21' E 002°10'3 6.0
2018-Feb-05 05:01N 41°18' E 002°11'3 6.5
2018-Feb-05 04:31N 41°15' E 002°12'4 7.4
2018-Feb-05 04:00N 41°11' E 002°14'713.5
2018-Feb-05 03:30N 41°05' E 002°17'  

Dump ship's entire track history